Airfield :
LOGIN :

Register | Disclaimer

   EN    FR    IT 

 










Legend :    VFR   Marginal VFR   IFR   Intensive IFR   Very Intensive IFR
Visi :
Ceiling :
>= 8 km
>= 3000ft
5 to 8 km
1000 to 3000 ft
1500m to 5 km
500 to 1000 ft
800 to 1500m
200 to 500 ft
< 800m
< 200 ft
Symbols :   Thunderstorms  Fog  Heavy snow  Heavy precipitations  Wind > 20 kt
SIGMETs :     Misc.  Thunderstorms  Icing  Turbulence  Mountain Waves  Volcanic Ashes






- Airport Elevation : 53 ft
- IATA code : HAM


EDDH - Hamburg

CURRENT METAR :
  • 290420Z AUTO 16010KT 9999 -RA BKN012 13/11 Q1011 TEMPO BKN008

EXPIRED METARs :
  • 290350Z AUTO 16011KT 9999 -DZ OVC014 OVC044 13/11 Q1011 TEMPO BKN008
  • 290320Z AUTO 16010KT 9999 -DZ BKN016 13/11 Q1011 TEMPO BKN012
  • 290250Z AUTO 16008KT 9999 SCT019 BKN036 BKN049 13/11 Q1011 TEMPO BKN012
  • 290220Z AUTO 15009KT 9999 BKN021 13/10 Q1012 TEMPO BKN012
  • 290150Z AUTO 14009KT 9999 -RA FEW026 SCT043 12/10 Q1012 NOSIG
  • 290120Z AUTO 16008KT 9999 -RA FEW028 13/10 Q1012 NOSIG
  • 290050Z AUTO 15008KT 9999 -RA NSC 13/10 Q1013 NOSIG
  • 290020Z AUTO 14008KT CAVOK 13/10 Q1013 NOSIG
  • 282350Z AUTO 14006KT CAVOK 13/10 Q1013 NOSIG
  • 282320Z AUTO 13006KT CAVOK 13/10 Q1013 NOSIG

TAF TAF EDDH
Valid from the 29 at 00:00 until the 30 at 06:00 UTC


282300Z 2900/3006 14008KT 9999 BKN040
TEMPO 2904/2911 4000 RA BKN012
PROB30
TEMPO 2907/2909 BKN008
BECMG 2907/2909 20011KT
TEMPO 2911/2922 SHRA BKN014CB
PROB30
TEMPO 2914/2919 21015G25KT 4000 TSRA
BECMG 2917/2919 20004KT
TEMPO 2923/3005 2000 BCFG
PROB40
TEMPO 3000/3004 0500 FG
PROB30
TEMPO 3002/3005 BKN002



MET'MAP, your aeronautical weather chart ! - Copyright ORBIFLY December 2007 - Disclaimer

ORBIFLY MET'MAP TEAM :

Programming & Development : Alexandra Zaïnal
Original concept : Baudouin d'Aumeries
Technical & hardware support : Manuel Goepfert
Assistance : Marc-Olivier Méhu




SOURCES & CREDITS :

   NOAA